Deadwood, SD (57732)

3:30 AM MST on February 23, 2017 (GMT -0700)
Green Acres | | Change Station
Active Advisory: Winter Storm Warning

Elev 4012 ft 44.47 °N, 103.81 °W | Updated 35 seconds ago

Overcast
Overcast
26.4 °F
Feels Like 21 °F
N
4.2
Wind Variable Wind from East

Today
High -- | Low -- °F
--% Chance of Precip.
Yesterday
High -- | Low -- °F
Precip. -- in
Pressure 29.86 in
Visibility 4.0 miles
Clouds Overcast 200 ft
Windchill 21 °F
Dew Point 26 °F
Humidity 99%
Rainfall 0.00 in
Snow Depth Not available.
6:41 AM 5:35 PM
Waning Crescent, 11% visible
SPECI KRCA 231006Z 06008KT 4SM -SN BR OVC002 M02/M02 A2986 RMK AO2A
Pressure 29.86 in
Visibility 4.0 miles
Clouds Overcast 200 ft
Windchill 21 °F
Dew Point 26 °F
Humidity 99%
Rainfall 0.00 in
Snow Depth Not available.
6:41 AM 5:35 PM
Waning Crescent, 11% visible
SPECI KRCA 231006Z 06008KT 4SM -SN BR OVC002 M02/M02 A2986 RMK AO2A

Get Your Daily Forecast Email!

Thanks for signing up!

Be on the lookout for a verification email in your inbox.

You'll start receiving the daily forecast at 8 AM.

×

10-Day Weather Forecast

Almanac

Astronomy

Feb. 23, 2017 Rise Set
Actual Time
Civil Twilight
Nautical Twilight
Astronomical Twilight
Moon
Length of Visible Light
Length of Day
Tomorrow will be .
, % of the Moon is Illuminated

Today's Extremes

State Highs State Lows

Community

WunderPhotos

Upload Photos

1,962,540 photos uploaded!

WunderBlog® & News

Nearby

Air Quality

  Air Quality AQ Index Pollutant
Not available.

Snow Depth

Station Depth Elevation

Earthquake Activity

City Distance Mag. Time & Date
Minimum magnitude displayed is 2.5.

Coastal Water Temperatures

Place Temperature

Stations

Nearby Weather Stations

Station Location Temp. Windchill Dew Point Humidity Wind Precip. Elev Updated Type
                   

Watches & Warnings

Winter Storm Warning
Issued: 8:20 PM MST Feb. 22, 2017 – National Weather Service

... Winter Storm Warning remains in effect from 5 am Thursday to
11 am MST Friday...

* expect snow to develop Thursday morning and then diminish
Friday morning.

* The heaviest snowfall will occur Thursday afternoon and
evening.

* Total snow accumulations of 5 to 9 inches are expected.

* Look for significant reductions in visibility at times.

* Plan on difficult driving conditions... especially during the
morning and evening commutes on Thursday and morning commute
on Friday.

Precautionary/preparedness actions...

A Winter Storm Warning for snow means severe winter weather
conditions are expected. If you must travel... keep an extra
flashlight... food and water in your vehicle in case of an
emergency. The latest Road conditions for the state you are
calling from can be obtained by calling 5 1 1.